NCAR-RAP Real-Time Weather Data

Output produced by METARs form (12 May 2021  11:39 UTC)
found at http://weather.rap.ucar.edu/surface/
 
KBTV 121054Z 17003KT 10SM BKN065 07/06 A3005 RMK AO2 RAE0956 SLP179 P0000 T00720056
KBTV 121002Z 18004KT 10SM FEW021 SCT025 OVC035 07/04 A3003 RMK AO2 RAE0956 P0000 T00670044
KBTV 120954Z 18004KT 10SM -RA BKN025 OVC035 07/04 A3003 RMK AO2 RAB31 SLP170 P0000 T00670044
KBTV 120943Z 00000KT 10SM -RA BKN024 OVC030 07/05 A3003 RMK AO2 RAB31 P0000 T00670050
KBTV 120930Z 18003KT 10SM FEW022 OVC030 07/04 A3002 RMK AO2 T00670044
KBTV 120854Z 18003KT 10SM BKN017 OVC025 07/04 A3001 RMK AO2 SLP163 60002 T00670044 53011
KBTV 120754Z 31005KT 10SM OVC019 07/04 A2999 RMK AO2 RAB0657E41 SLP157 P0001 T00670039
KBTV 120654Z 27003KT 10SM OVC025 07/04 A2998 RMK AO2 RAE26 SLP153 P0001 T00670039
KBTV 120554Z 27006KT 10SM -RA OVC028 07/03 A2998 RMK AO2 SLP152 P0004 60006 T00670033 10094 20067 51002
KBTV 120454Z 28004KT 9SM -RA OVC028 07/03 A2998 RMK AO2 SLP152 P0002 T00670033 401560056
KBTV 120410Z 28010KT 10SM -RA BKN027 OVC032 08/03 A2997 RMK AO2 P0000 T00780028
KBTV 120354Z COR 29010KT 10SM -RA OVC031 08/03 A2997 RMK AO2 RAB25 SLP150 LAST P0000 T00780028
KBTV 120325Z 27007KT 10SM -RA BKN029 OVC035 08/02 A2996 RMK AO2 RAB25 P0000 T00830022
KBTV 120254Z 26007KT 10SM OVC033 09/02 A2996 RMK AO2 SLP148 T00890017 50004
KBTV 120154Z 25005KT 10SM OVC045 09/02 A2997 RMK AO2 SLP152 T00890017
KBTV 120054Z 29009KT 10SM BKN055 09/02 A2997 RMK AO2 SLP151 T00890017
KBTV 112354Z 32009KT 10SM BKN060 09/02 A2995 RMK AO2 SLP144 60000 T00940017 10156 20094 51017
KBTV 112254Z 28006KT 10SM SCT060 BKN075 11/M01 A2994 RMK AO2 SLP139 T01061006
KBTV 112154Z 29013G20KT 10SM BKN065 BKN100 12/M01 A2992 RMK AO2 SLP134 T01171011
KBTV 112054Z 29011KT 10SM SCT050 SCT100 13/M02 A2990 RMK AO2 PK WND 27027/2008 SLP127 60000 T01281022 55001
KBTV 111954Z 30013G23KT 10SM SCT070 BKN080 BKN095 14/M04 A2989 RMK AO2 RAB11E20 SLP123 SHRA DSNT ALQDS P0000 T01441039